sensor_id;sensor_type;location;lat;lon;timestamp;pressure;altitude;pressure_sealevel;temperature;humidity
16030;BME280;34770;49.272;11.070;2022-09-12T00:02:10;97934.63;;;11.24;100.00
16030;BME280;34770;49.272;11.070;2022-09-12T00:04:35;97929.66;;;11.17;100.00
16030;BME280;34770;49.272;11.070;2022-09-12T00:07:01;97936.97;;;11.22;100.00
16030;BME280;34770;49.272;11.070;2022-09-12T00:09:26;97934.44;;;11.17;100.00
16030;BME280;34770;49.272;11.070;2022-09-12T00:11:51;97932.72;;;11.12;100.00
16030;BME280;34770;49.272;11.070;2022-09-12T00:14:17;97930.91;;;11.04;100.00
16030;BME280;34770;49.272;11.070;2022-09-12T00:16:43;97919.56;;;10.97;100.00
16030;BME280;34770;49.272;11.070;2022-09-12T00:19:09;97920.59;;;11.05;100.00
16030;BME280;34770;49.272;11.070;2022-09-12T00:21:37;97927.31;;;11.04;100.00
16030;BME280;34770;49.272;11.070;2022-09-12T00:24:03;97931.00;;;11.08;100.00
16030;BME280;34770;49.272;11.070;2022-09-12T00:26:28;97920.78;;;11.12;100.00
16030;BME280;34770;49.272;11.070;2022-09-12T00:28:54;97920.78;;;11.12;100.00
16030;BME280;34770;49.272;11.070;2022-09-12T00:31:21;97919.59;;;11.13;100.00
16030;BME280;34770;49.272;11.070;2022-09-12T00:33:52;97921.03;;;11.07;100.00
16030;BME280;34770;49.272;11.070;2022-09-12T00:36:19;97927.50;;;11.11;100.00
16030;BME280;34770;49.272;11.070;2022-09-12T00:38:46;97930.66;;;11.09;100.00
16030;BME280;34770;49.272;11.070;2022-09-12T00:41:22;97928.22;;;11.08;100.00
16030;BME280;34770;49.272;11.070;2022-09-12T00:43:52;97918.59;;;11.05;100.00
16030;BME280;34770;49.272;11.070;2022-09-12T00:48:55;97919.41;;;11.06;100.00
16030;BME280;34770;49.272;11.070;2022-09-12T00:51:23;97910.13;;;11.01;100.00
16030;BME280;34770;49.272;11.070;2022-09-12T00:53:51;97907.06;;;10.91;100.00
16030;BME280;34770;49.272;11.070;2022-09-12T00:56:18;97913.56;;;10.95;100.00
16030;BME280;34770;49.272;11.070;2022-09-12T00:59:01;97896.66;;;10.75;100.00
16030;BME280;34770;49.272;11.070;2022-09-12T01:01:28;97909.03;;;10.90;100.00
16030;BME280;34770;49.272;11.070;2022-09-12T01:03:53;97902.53;;;10.86;100.00
16030;BME280;34770;49.272;11.070;2022-09-12T01:06:27;97910.78;;;10.82;100.00
16030;BME280;34770;49.272;11.070;2022-09-12T01:08:55;97890.41;;;10.78;100.00
16030;BME280;34770;49.272;11.070;2022-09-12T01:11:21;97903.06;;;10.76;100.00
16030;BME280;34770;49.272;11.070;2022-09-12T01:13:48;97901.91;;;10.77;100.00
16030;BME280;34770;49.272;11.070;2022-09-12T01:16:15;97888.41;;;10.79;100.00
16030;BME280;34770;49.272;11.070;2022-09-12T01:27:22;97892.03;;;10.79;100.00
16030;BME280;34770;49.272;11.070;2022-09-12T01:38:28;97885.91;;;10.74;100.00
16030;BME280;34770;49.272;11.070;2022-09-12T01:46:53;97887.53;;;10.75;100.00
16030;BME280;34770;49.272;11.070;2022-09-12T01:49:32;97883.66;;;10.51;100.00
16030;BME280;34770;49.272;11.070;2022-09-12T01:54:50;97873.25;;;10.23;100.00
16030;BME280;34770;49.272;11.070;2022-09-12T02:00:21;97876.16;;;10.27;100.00
16030;BME280;34770;49.272;11.070;2022-09-12T02:03:10;97873.16;;;10.32;100.00
16030;BME280;34770;49.272;11.070;2022-09-12T02:08:48;97872.69;;;10.30;100.00
16030;BME280;34770;49.272;11.070;2022-09-12T02:11:15;97880.22;;;10.29;100.00
16030;BME280;34770;49.272;11.070;2022-09-12T02:13:52;97862.84;;;10.20;100.00
16030;BME280;34770;49.272;11.070;2022-09-12T02:16:47;97859.38;;;10.11;100.00
16030;BME280;34770;49.272;11.070;2022-09-12T02:19:19;97871.09;;;10.16;100.00
16030;BME280;34770;49.272;11.070;2022-09-12T02:21:51;97865.88;;;10.15;100.00
16030;BME280;34770;49.272;11.070;2022-09-12T02:24:19;97865.41;;;10.13;100.00
16030;BME280;34770;49.272;11.070;2022-09-12T02:26:59;97872.34;;;10.19;100.00
16030;BME280;34770;49.272;11.070;2022-09-12T02:29:26;97867.25;;;10.21;100.00
16030;BME280;34770;49.272;11.070;2022-09-12T02:31:58;97865.41;;;10.13;100.00
16030;BME280;34770;49.272;11.070;2022-09-12T02:39:54;97857.19;;;10.16;100.00
16030;BME280;34770;49.272;11.070;2022-09-12T02:42:22;97856.03;;;10.05;100.00
16030;BME280;34770;49.272;11.070;2022-09-12T02:44:48;97858.22;;;10.12;100.00
16030;BME280;34770;49.272;11.070;2022-09-12T02:47:23;97852.78;;;10.15;100.00
16030;BME280;34770;49.272;11.070;2022-09-12T02:49:52;97859.50;;;10.14;100.00
16030;BME280;34770;49.272;11.070;2022-09-12T02:52:18;97852.63;;;10.24;100.00
16030;BME280;34770;49.272;11.070;2022-09-12T02:54:43;97860.28;;;10.27;100.00
16030;BME280;34770;49.272;11.070;2022-09-12T02:57:20;97854.09;;;10.34;100.00
16030;BME280;34770;49.272;11.070;2022-09-12T02:59:46;97854.00;;;10.30;100.00
16030;BME280;34770;49.272;11.070;2022-09-12T03:05:04;97856.25;;;10.25;100.00
16030;BME280;34770;49.272;11.070;2022-09-12T03:07:55;97855.88;;;10.26;100.00
16030;BME280;34770;49.272;11.070;2022-09-12T03:10:36;97855.63;;;10.31;100.00
16030;BME280;34770;49.272;11.070;2022-09-12T03:13:12;97855.63;;;10.31;100.00
16030;BME280;34770;49.272;11.070;2022-09-12T03:18:59;97849.53;;;10.26;100.00
16030;BME280;34770;49.272;11.070;2022-09-12T03:21:32;97839.97;;;10.27;100.00
16030;BME280;34770;49.272;11.070;2022-09-12T03:24:04;97841.28;;;10.29;100.00
16030;BME280;34770;49.272;11.070;2022-09-12T03:26:41;97848.31;;;10.27;100.00
16030;BME280;34770;49.272;11.070;2022-09-12T03:29:09;97839.56;;;10.25;100.00
16030;BME280;34770;49.272;11.070;2022-09-12T03:31:35;97839.97;;;10.27;100.00
16030;BME280;34770;49.272;11.070;2022-09-12T03:34:01;97841.19;;;10.13;100.00
16030;BME280;34770;49.272;11.070;2022-09-12T03:36:28;97845.25;;;10.03;100.00
16030;BME280;34770;49.272;11.070;2022-09-12T03:38:54;97846.94;;;9.80;100.00
16030;BME280;34770;49.272;11.070;2022-09-12T03:41:20;97853.16;;;9.77;100.00
16030;BME280;34770;49.272;11.070;2022-09-12T03:43:46;97842.78;;;9.73;100.00
16030;BME280;34770;49.272;11.070;2022-09-12T03:46:12;97835.91;;;9.71;100.00
16030;BME280;34770;49.272;11.070;2022-09-12T03:48:38;97845.31;;;9.79;100.00
16030;BME280;34770;49.272;11.070;2022-09-12T03:51:06;97857.69;;;9.69;100.00
16030;BME280;34770;49.272;11.070;2022-09-12T03:53:31;97856.75;;;9.52;100.00
16030;BME280;34770;49.272;11.070;2022-09-12T03:55:57;97854.66;;;9.37;100.00
16030;BME280;34770;49.272;11.070;2022-09-12T03:58:23;97853.16;;;9.39;100.00
16030;BME280;34770;49.272;11.070;2022-09-12T04:00:49;97852.13;;;9.44;100.00
16030;BME280;34770;49.272;11.070;2022-09-12T04:03:15;97857.56;;;9.53;100.00
16030;BME280;34770;49.272;11.070;2022-09-12T04:05:40;97856.88;;;9.56;100.00
16030;BME280;34770;49.272;11.070;2022-09-12T04:08:05;97857.13;;;9.51;100.00
16030;BME280;34770;49.272;11.070;2022-09-12T04:10:31;97865.09;;;9.52;100.00
16030;BME280;34770;49.272;11.070;2022-09-12T04:12:56;97859.66;;;9.56;100.00
16030;BME280;34770;49.272;11.070;2022-09-12T04:15:22;97854.56;;;9.58;100.00
16030;BME280;34770;49.272;11.070;2022-09-12T04:17:47;97857.34;;;9.58;100.00
16030;BME280;34770;49.272;11.070;2022-09-12T04:20:12;97861.97;;;9.54;100.00
16030;BME280;34770;49.272;11.070;2022-09-12T04:22:38;97860.25;;;9.49;100.00
16030;BME280;34770;49.272;11.070;2022-09-12T04:25:03;97868.00;;;9.56;100.00
16030;BME280;34770;49.272;11.070;2022-09-12T04:27:29;97861.16;;;9.53;100.00
16030;BME280;34770;49.272;11.070;2022-09-12T04:29:55;97862.91;;;9.58;100.00
16030;BME280;34770;49.272;11.070;2022-09-12T04:32:21;97852.94;;;9.57;100.00
16030;BME280;34770;49.272;11.070;2022-09-12T04:34:46;97859.66;;;9.56;100.00
16030;BME280;34770;49.272;11.070;2022-09-12T04:37:12;97838.72;;;9.46;100.00
16030;BME280;34770;49.272;11.070;2022-09-12T04:39:37;97853.44;;;9.59;100.00
16030;BME280;34770;49.272;11.070;2022-09-12T04:42:03;97862.78;;;9.54;100.00
16030;BME280;34770;49.272;11.070;2022-09-12T04:44:29;97858.75;;;9.52;100.00
16030;BME280;34770;49.272;11.070;2022-09-12T04:46:55;97852.47;;;9.55;100.00
16030;BME280;34770;49.272;11.070;2022-09-12T04:49:21;97854.09;;;9.56;100.00
16030;BME280;34770;49.272;11.070;2022-09-12T04:51:47;97865.47;;;9.51;100.00
16030;BME280;34770;49.272;11.070;2022-09-12T04:54:18;97851.78;;;9.58;100.00
16030;BME280;34770;49.272;11.070;2022-09-12T04:56:45;97854.34;;;9.63;100.00
16030;BME280;34770;49.272;11.070;2022-09-12T04:59:13;97845.22;;;9.63;100.00
16030;BME280;34770;49.272;11.070;2022-09-12T05:01:39;97843.22;;;9.63;100.00
16030;BME280;34770;49.272;11.070;2022-09-12T05:04:05;97854.94;;;9.69;100.00
16030;BME280;34770;49.272;11.070;2022-09-12T05:06:33;97859.66;;;9.68;100.00
16030;BME280;34770;49.272;11.070;2022-09-12T05:09:00;97851.53;;;9.76;100.00
16030;BME280;34770;49.272;11.070;2022-09-12T05:11:32;97860.00;;;9.79;100.00
16030;BME280;34770;49.272;11.070;2022-09-12T05:13:58;97865.19;;;9.81;100.00
16030;BME280;34770;49.272;11.070;2022-09-12T05:16:25;97869.41;;;9.87;100.00
16030;BME280;34770;49.272;11.070;2022-09-12T05:18:51;97863.13;;;9.90;100.00
16030;BME280;34770;49.272;11.070;2022-09-12T05:21:19;97857.66;;;9.94;100.00
16030;BME280;34770;49.272;11.070;2022-09-12T05:23:46;97854.91;;;9.94;100.00
16030;BME280;34770;49.272;11.070;2022-09-12T05:26:14;97869.59;;;10.06;100.00
16030;BME280;34770;49.272;11.070;2022-09-12T05:28:40;97869.81;;;10.14;100.00
16030;BME280;34770;49.272;11.070;2022-09-12T05:31:10;97873.41;;;10.14;100.00
16030;BME280;34770;49.272;11.070;2022-09-12T05:33:36;97870.63;;;10.14;100.00
16030;BME280;34770;49.272;11.070;2022-09-12T05:36:04;97875.59;;;10.09;100.00
16030;BME280;34770;49.272;11.070;2022-09-12T05:38:31;97873.16;;;10.19;100.00
16030;BME280;34770;49.272;11.070;2022-09-12T05:41:09;97878.59;;;10.28;100.00
16030;BME280;34770;49.272;11.070;2022-09-12T05:43:37;97875.34;;;10.26;100.00
16030;BME280;34770;49.272;11.070;2022-09-12T05:46:04;97875.00;;;10.28;100.00
16030;BME280;34770;49.272;11.070;2022-09-12T05:48:33;97874.88;;;10.36;100.00
16030;BME280;34770;49.272;11.070;2022-09-12T05:51:11;97884.13;;;10.53;100.00
16030;BME280;34770;49.272;11.070;2022-09-12T05:53:38;97881.38;;;10.69;100.00
16030;BME280;34770;49.272;11.070;2022-09-12T05:56:07;97886.44;;;10.51;100.00
16030;BME280;34770;49.272;11.070;2022-09-12T05:58:34;97882.50;;;10.52;100.00
16030;BME280;34770;49.272;11.070;2022-09-12T06:01:04;97879.50;;;10.45;100.00
16030;BME280;34770;49.272;11.070;2022-09-12T06:03:31;97884.84;;;10.37;100.00
16030;BME280;34770;49.272;11.070;2022-09-12T06:06:00;97866.78;;;10.19;100.00
16030;BME280;34770;49.272;11.070;2022-09-12T06:08:26;97870.28;;;10.03;100.00
16030;BME280;34770;49.272;11.070;2022-09-12T06:10:57;97837.75;;;9.92;100.00
16030;BME280;34770;49.272;11.070;2022-09-12T06:13:23;97854.91;;;9.94;100.00
16030;BME280;34770;49.272;11.070;2022-09-12T06:15:49;97846.69;;;9.85;100.00
16030;BME280;34770;49.272;11.070;2022-09-12T06:18:14;97821.78;;;9.64;100.00
16030;BME280;34770;49.272;11.070;2022-09-12T06:20:39;97886.03;;;10.12;100.00
16030;BME280;34770;49.272;11.070;2022-09-12T06:23:05;97809.41;;;9.73;100.00
16030;BME280;34770;49.272;11.070;2022-09-12T06:25:30;97860.75;;;10.29;100.00
16030;BME280;34770;49.272;11.070;2022-09-12T06:27:56;97885.75;;;10.54;100.00
16030;BME280;34770;49.272;11.070;2022-09-12T06:30:21;97865.47;;;10.41;100.00
16030;BME280;34770;49.272;11.070;2022-09-12T06:32:46;97861.59;;;10.58;100.00
16030;BME280;34770;49.272;11.070;2022-09-12T06:35:12;97827.41;;;10.58;100.00
16030;BME280;34770;49.272;11.070;2022-09-12T06:37:37;97830.94;;;10.71;100.00
16030;BME280;34770;49.272;11.070;2022-09-12T06:40:03;97834.75;;;10.94;100.00
16030;BME280;34770;49.272;11.070;2022-09-12T06:42:28;97856.28;;;11.26;100.00
16030;BME280;34770;49.272;11.070;2022-09-12T06:44:54;97848.91;;;11.33;100.00
16030;BME280;34770;49.272;11.070;2022-09-12T06:47:19;97874.88;;;11.38;100.00
16030;BME280;34770;49.272;11.070;2022-09-12T06:49:45;97862.56;;;11.23;100.00
16030;BME280;34770;49.272;11.070;2022-09-12T06:52:10;97850.22;;;11.08;100.00
16030;BME280;34770;49.272;11.070;2022-09-12T06:54:35;97843.78;;;11.20;100.00
16030;BME280;34770;49.272;11.070;2022-09-12T06:57:03;97856.91;;;11.51;100.00
16030;BME280;34770;49.272;11.070;2022-09-12T06:59:29;97814.66;;;11.49;100.00
16030;BME280;34770;49.272;11.070;2022-09-12T07:01:54;97863.88;;;11.93;100.00
16030;BME280;34770;49.272;11.070;2022-09-12T07:04:20;97858.84;;;11.99;100.00
16030;BME280;34770;49.272;11.070;2022-09-12T07:06:46;97830.91;;;11.79;100.00
16030;BME280;34770;49.272;11.070;2022-09-12T07:09:13;97867.75;;;12.40;100.00
16030;BME280;34770;49.272;11.070;2022-09-12T07:11:43;97865.94;;;12.48;100.00
16030;BME280;34770;49.272;11.070;2022-09-12T07:14:11;97870.13;;;12.22;100.00
16030;BME280;34770;49.272;11.070;2022-09-12T07:16:38;97839.97;;;12.27;100.00
16030;BME280;34770;49.272;11.070;2022-09-12T07:19:05;97873.41;;;12.63;100.00
16030;BME280;34770;49.272;11.070;2022-09-12T07:21:31;97881.50;;;12.88;100.00
16030;BME280;34770;49.272;11.070;2022-09-12T07:23:57;97842.69;;;12.63;100.00
16030;BME280;34770;49.272;11.070;2022-09-12T07:26:24;97839.84;;;12.79;100.00
16030;BME280;34770;49.272;11.070;2022-09-12T07:28:51;97873.00;;;13.23;100.00
16030;BME280;34770;49.272;11.070;2022-09-12T07:31:19;97858.06;;;12.92;100.00
16030;BME280;34770;49.272;11.070;2022-09-12T07:33:45;97878.75;;;13.11;100.00
16030;BME280;34770;49.272;11.070;2022-09-12T07:36:14;97844.91;;;13.16;100.00
16030;BME280;34770;49.272;11.070;2022-09-12T07:38:41;97864.81;;;13.57;100.00
16030;BME280;34770;49.272;11.070;2022-09-12T07:41:14;97817.63;;;13.52;100.00
16030;BME280;34770;49.272;11.070;2022-09-12T07:43:41;97872.03;;;14.09;100.00
16030;BME280;34770;49.272;11.070;2022-09-12T07:46:07;97833.34;;;13.61;100.00
16030;BME280;34770;49.272;11.070;2022-09-12T07:48:32;97865.41;;;13.94;100.00
16030;BME280;34770;49.272;11.070;2022-09-12T07:50:59;97863.53;;;14.28;100.00
16030;BME280;34770;49.272;11.070;2022-09-12T07:53:29;97838.28;;;14.25;100.00
16030;BME280;34770;49.272;11.070;2022-09-12T07:55:55;97843.75;;;14.44;100.00
16030;BME280;34770;49.272;11.070;2022-09-12T07:58:22;97844.97;;;14.77;100.00
16030;BME280;34770;49.272;11.070;2022-09-12T08:00:47;97872.72;;;15.27;100.00
16030;BME280;34770;49.272;11.070;2022-09-12T08:03:15;97840.91;;;15.09;100.00
16030;BME280;34770;49.272;11.070;2022-09-12T08:05:41;97863.81;;;15.56;100.00
16030;BME280;34770;49.272;11.070;2022-09-12T08:08:06;97872.50;;;15.85;100.00
16030;BME280;34770;49.272;11.070;2022-09-12T08:10:32;97816.69;;;15.79;100.00
16030;BME280;34770;49.272;11.070;2022-09-12T08:12:57;97849.34;;;15.99;100.00
16030;BME280;34770;49.272;11.070;2022-09-12T08:15:23;97842.00;;;15.83;100.00
16030;BME280;34770;49.272;11.070;2022-09-12T08:17:49;97841.31;;;15.97;100.00
16030;BME280;34770;49.272;11.070;2022-09-12T08:20:14;97870.56;;;16.63;100.00
16030;BME280;34770;49.272;11.070;2022-09-12T08:22:39;97871.94;;;16.94;100.00
16030;BME280;34770;49.272;11.070;2022-09-12T08:25:08;97879.25;;;17.20;100.00
16030;BME280;34770;49.272;11.070;2022-09-12T08:27:33;97869.63;;;17.39;99.58
16030;BME280;34770;49.272;11.070;2022-09-12T08:29:59;97854.78;;;17.50;99.21
16030;BME280;34770;49.272;11.070;2022-09-12T08:32:24;97856.41;;;17.65;98.41
16030;BME280;34770;49.272;11.070;2022-09-12T08:34:52;97856.41;;;17.58;99.22
16030;BME280;34770;49.272;11.070;2022-09-12T08:37:17;97869.28;;;17.56;100.00
16030;BME280;34770;49.272;11.070;2022-09-12T08:39:43;97847.19;;;17.97;98.68
16030;BME280;34770;49.272;11.070;2022-09-12T08:42:09;97869.22;;;18.46;94.56
16030;BME280;34770;49.272;11.070;2022-09-12T08:50:09;97841.00;;;18.57;87.75
16030;BME280;34770;49.272;11.070;2022-09-12T08:55:44;97860.56;;;19.71;88.14
16030;BME280;34770;49.272;11.070;2022-09-12T08:58:18;97846.91;;;19.66;83.98
16030;BME280;34770;49.272;11.070;2022-09-12T09:17:17;97833.25;;;21.13;73.85
16030;BME280;34770;49.272;11.070;2022-09-12T09:19:48;97850.56;;;21.46;77.04
16030;BME280;34770;49.272;11.070;2022-09-12T09:22:33;97850.41;;;22.32;72.00
16030;BME280;34770;49.272;11.070;2022-09-12T09:25:08;97843.25;;;22.00;71.43
16030;BME280;34770;49.272;11.070;2022-09-12T09:27:42;97847.44;;;22.15;72.70
16030;BME280;34770;49.272;11.070;2022-09-12T09:30:13;97845.09;;;21.87;71.30
16030;BME280;34770;49.272;11.070;2022-09-12T09:32:41;97817.13;;;21.65;73.63
16030;BME280;34770;49.272;11.070;2022-09-12T09:35:28;97810.00;;;21.53;72.35
16030;BME280;34770;49.272;11.070;2022-09-12T09:38:02;97825.28;;;21.63;69.03
16030;BME280;34770;49.272;11.070;2022-09-12T09:40:36;97845.44;;;21.38;69.82
16030;BME280;34770;49.272;11.070;2022-09-12T09:43:25;97842.97;;;21.40;70.88
16030;BME280;34770;49.272;11.070;2022-09-12T09:45:55;97818.72;;;21.66;75.72
16030;BME280;34770;49.272;11.070;2022-09-12T09:48:25;97839.34;;;22.38;71.02
16030;BME280;34770;49.272;11.070;2022-09-12T09:50:51;97795.97;;;22.17;70.85
16030;BME280;34770;49.272;11.070;2022-09-12T09:53:53;97833.63;;;22.41;68.12
16030;BME280;34770;49.272;11.070;2022-09-12T09:56:31;97830.97;;;22.30;70.45
16030;BME280;34770;49.272;11.070;2022-09-12T10:01:48;97835.78;;;22.34;69.33
16030;BME280;34770;49.272;11.070;2022-09-12T10:04:26;97827.56;;;23.00;66.62
16030;BME280;34770;49.272;11.070;2022-09-12T10:06:56;97834.94;;;22.13;65.26
16030;BME280;34770;49.272;11.070;2022-09-12T10:09:27;97827.63;;;22.39;62.70
16030;BME280;34770;49.272;11.070;2022-09-12T10:11:55;97826.78;;;21.67;64.91
16030;BME280;34770;49.272;11.070;2022-09-12T10:14:36;97800.72;;;22.24;64.96
16030;BME280;34770;49.272;11.070;2022-09-12T10:17:28;97813.81;;;22.61;63.34
16030;BME280;34770;49.272;11.070;2022-09-12T10:19:56;97819.81;;;22.84;65.20
16030;BME280;34770;49.272;11.070;2022-09-12T10:22:24;97813.19;;;22.50;61.30
16030;BME280;34770;49.272;11.070;2022-09-12T10:24:52;97807.69;;;22.63;61.14
16030;BME280;34770;49.272;11.070;2022-09-12T10:27:24;97773.88;;;22.08;63.72
16030;BME280;34770;49.272;11.070;2022-09-12T10:32:32;97805.16;;;23.05;63.50
16030;BME280;34770;49.272;11.070;2022-09-12T10:35:06;97782.00;;;23.27;62.24
16030;BME280;34770;49.272;11.070;2022-09-12T10:39:59;97809.34;;;23.87;59.85
16030;BME280;34770;49.272;11.070;2022-09-12T10:45:38;97805.66;;;24.36;57.37
16030;BME280;34770;49.272;11.070;2022-09-12T10:50:53;97806.44;;;24.95;55.74
16030;BME280;34770;49.272;11.070;2022-09-12T10:53:24;97792.75;;;24.77;55.24
16030;BME280;34770;49.272;11.070;2022-09-12T10:56:29;97801.59;;;24.50;52.53
16030;BME280;34770;49.272;11.070;2022-09-12T11:07:01;97792.91;;;25.77;51.21
16030;BME280;34770;49.272;11.070;2022-09-12T11:15:47;97785.84;;;24.32;52.50
16030;BME280;34770;49.272;11.070;2022-09-12T11:26:41;97788.78;;;23.50;53.69
16030;BME280;34770;49.272;11.070;2022-09-12T11:32:14;97795.19;;;22.81;58.02
16030;BME280;34770;49.272;11.070;2022-09-12T11:35:15;97786.75;;;23.14;58.26
16030;BME280;34770;49.272;11.070;2022-09-12T11:45:53;97770.81;;;25.68;50.48
16030;BME280;34770;49.272;11.070;2022-09-12T11:48:52;97767.75;;;25.62;48.59
16030;BME280;34770;49.272;11.070;2022-09-12T11:51:24;97765.41;;;25.83;49.94
16030;BME280;34770;49.272;11.070;2022-09-12T11:57:04;97748.91;;;24.88;50.47
16030;BME280;34770;49.272;11.070;2022-09-12T12:00:02;97752.81;;;25.20;51.86
16030;BME280;34770;49.272;11.070;2022-09-12T12:02:39;97734.59;;;25.43;48.67
16030;BME280;34770;49.272;11.070;2022-09-12T12:05:24;97745.19;;;25.29;47.71
16030;BME280;34770;49.272;11.070;2022-09-12T12:07:53;97750.69;;;25.85;49.69
16030;BME280;34770;49.272;11.070;2022-09-12T12:10:43;97745.00;;;25.85;48.75
16030;BME280;34770;49.272;11.070;2022-09-12T12:13:16;97753.56;;;26.20;48.11
16030;BME280;34770;49.272;11.070;2022-09-12T12:15:46;97751.97;;;26.19;46.73
16030;BME280;34770;49.272;11.070;2022-09-12T12:18:20;97748.28;;;26.31;44.63
16030;BME280;34770;49.272;11.070;2022-09-12T12:20:47;97747.22;;;26.03;44.73
16030;BME280;34770;49.272;11.070;2022-09-12T12:23:22;97744.47;;;25.77;46.27
16030;BME280;34770;49.272;11.070;2022-09-12T12:25:54;97742.50;;;26.22;47.47
16030;BME280;34770;49.272;11.070;2022-09-12T12:31:08;97730.38;;;25.95;47.02
16030;BME280;34770;49.272;11.070;2022-09-12T12:36:07;97730.44;;;25.83;45.57
16030;BME280;34770;49.272;11.070;2022-09-12T12:38:34;97728.06;;;25.68;44.60
16030;BME280;34770;49.272;11.070;2022-09-12T12:43:42;97721.59;;;24.90;44.98
16030;BME280;34770;49.272;11.070;2022-09-12T12:46:12;97723.91;;;24.53;47.33
16030;BME280;34770;49.272;11.070;2022-09-12T12:48:54;97711.00;;;24.23;46.62
16030;BME280;34770;49.272;11.070;2022-09-12T12:54:00;97708.56;;;24.21;45.31
16030;BME280;34770;49.272;11.070;2022-09-12T12:56:39;97706.91;;;24.79;47.58
16030;BME280;34770;49.272;11.070;2022-09-12T12:59:22;97709.66;;;24.82;47.02
16030;BME280;34770;49.272;11.070;2022-09-12T13:01:50;97704.06;;;25.17;45.46
16030;BME280;34770;49.272;11.070;2022-09-12T13:04:19;97677.78;;;24.75;46.84
16030;BME280;34770;49.272;11.070;2022-09-12T13:07:05;97698.94;;;25.25;46.41
16030;BME280;34770;49.272;11.070;2022-09-12T13:09:44;97697.59;;;25.17;47.74
16030;BME280;34770;49.272;11.070;2022-09-12T13:12:19;97689.59;;;25.12;48.80
16030;BME280;34770;49.272;11.070;2022-09-12T13:19:53;97682.75;;;25.83;45.78
16030;BME280;34770;49.272;11.070;2022-09-12T13:22:40;97684.00;;;25.82;46.73
16030;BME280;34770;49.272;11.070;2022-09-12T13:25:25;97672.59;;;25.60;47.24
16030;BME280;34770;49.272;11.070;2022-09-12T13:30:39;97670.88;;;25.85;47.70
16030;BME280;34770;49.272;11.070;2022-09-12T13:39:08;97677.06;;;25.35;46.31
16030;BME280;34770;49.272;11.070;2022-09-12T13:44:23;97670.31;;;25.55;47.12
16030;BME280;34770;49.272;11.070;2022-09-12T13:46:49;97669.31;;;25.48;48.87
16030;BME280;34770;49.272;11.070;2022-09-12T13:49:22;97668.59;;;25.57;47.50
16030;BME280;34770;49.272;11.070;2022-09-12T13:52:03;97658.19;;;25.76;47.18
16030;BME280;34770;49.272;11.070;2022-09-12T13:54:31;97663.50;;;25.87;51.06
16030;BME280;34770;49.272;11.070;2022-09-12T13:56:58;97650.88;;;25.75;49.80
16030;BME280;34770;49.272;11.070;2022-09-12T13:59:24;97654.53;;;25.15;47.16
16030;BME280;34770;49.272;11.070;2022-09-12T14:01:50;97661.00;;;25.15;46.34
16030;BME280;34770;49.272;11.070;2022-09-12T14:07:01;97647.97;;;25.88;46.96
16030;BME280;34770;49.272;11.070;2022-09-12T14:09:34;97651.50;;;25.57;48.79
16030;BME280;34770;49.272;11.070;2022-09-12T14:12:03;97646.53;;;25.84;48.45
16030;BME280;34770;49.272;11.070;2022-09-12T14:14:34;97635.38;;;26.43;46.87
16030;BME280;34770;49.272;11.070;2022-09-12T14:17:18;97632.28;;;26.28;45.72
16030;BME280;34770;49.272;11.070;2022-09-12T14:19:48;97635.38;;;26.21;45.18
16030;BME280;34770;49.272;11.070;2022-09-12T14:22:14;97641.78;;;26.25;46.05
16030;BME280;34770;49.272;11.070;2022-09-12T14:24:47;97631.78;;;26.30;45.25
16030;BME280;34770;49.272;11.070;2022-09-12T14:27:24;97636.41;;;25.70;47.49
16030;BME280;34770;49.272;11.070;2022-09-12T14:29:59;97642.25;;;25.88;43.70
16030;BME280;34770;49.272;11.070;2022-09-12T14:32:26;97644.06;;;25.38;46.21
16030;BME280;34770;49.272;11.070;2022-09-12T14:35:17;97641.59;;;25.84;54.37
16030;BME280;34770;49.272;11.070;2022-09-12T14:37:47;97609.03;;;26.39;49.81
16030;BME280;34770;49.272;11.070;2022-09-12T14:40:19;97625.38;;;26.70;45.44
16030;BME280;34770;49.272;11.070;2022-09-12T14:42:46;97629.22;;;26.54;45.14
16030;BME280;34770;49.272;11.070;2022-09-12T14:45:29;97623.59;;;25.87;43.79
16030;BME280;34770;49.272;11.070;2022-09-12T14:47:56;97610.00;;;26.36;43.88
16030;BME280;34770;49.272;11.070;2022-09-12T14:50:27;97610.75;;;26.68;44.40
16030;BME280;34770;49.272;11.070;2022-09-12T14:53:09;97610.22;;;26.82;42.83
16030;BME280;34770;49.272;11.070;2022-09-12T14:55:56;97612.19;;;27.13;44.08
16030;BME280;34770;49.272;11.070;2022-09-12T14:58:24;97615.78;;;26.54;42.78
16030;BME280;34770;49.272;11.070;2022-09-12T15:00:56;97598.31;;;27.80;40.80
16030;BME280;34770;49.272;11.070;2022-09-12T15:03:34;97595.41;;;28.36;40.17
16030;BME280;34770;49.272;11.070;2022-09-12T15:06:01;97599.47;;;28.54;40.85
16030;BME280;34770;49.272;11.070;2022-09-12T15:08:29;97595.28;;;28.64;40.23
16030;BME280;34770;49.272;11.070;2022-09-12T15:10:55;97596.16;;;29.47;39.70
16030;BME280;34770;49.272;11.070;2022-09-12T15:13:22;97599.09;;;29.76;39.57
16030;BME280;34770;49.272;11.070;2022-09-12T15:15:56;97589.34;;;29.98;39.23
16030;BME280;34770;49.272;11.070;2022-09-12T15:18:24;97582.34;;;30.29;36.76
16030;BME280;34770;49.272;11.070;2022-09-12T15:21:07;97592.72;;;28.23;40.56
16030;BME280;34770;49.272;11.070;2022-09-12T15:23:49;97589.19;;;28.28;41.82
16030;BME280;34770;49.272;11.070;2022-09-12T15:26:17;97590.97;;;28.78;41.49
16030;BME280;34770;49.272;11.070;2022-09-12T15:28:43;97589.53;;;28.21;42.68
16030;BME280;34770;49.272;11.070;2022-09-12T15:31:28;97597.50;;;26.42;44.82
16030;BME280;34770;49.272;11.070;2022-09-12T15:33:55;97606.03;;;25.06;46.78